createdAt,value
2024-03-23T00:01:08.494Z,25.30
2024-03-23T00:03:35.940Z,27.00
2024-03-23T00:06:05.425Z,27.00
2024-03-23T00:08:32.823Z,27.60
2024-03-23T00:11:00.215Z,27.60
2024-03-23T00:13:27.587Z,24.20
2024-03-23T00:15:55.081Z,26.00
2024-03-23T00:18:24.425Z,24.50
2024-03-23T00:20:53.152Z,24.90
2024-03-23T00:23:20.530Z,25.10
2024-03-23T00:25:47.931Z,24.40
2024-03-23T00:28:15.377Z,25.50
2024-03-23T00:30:42.795Z,24.70
2024-03-23T00:33:10.213Z,22.60
2024-03-23T00:35:37.618Z,22.20
2024-03-23T00:38:05.013Z,22.90
2024-03-23T00:40:33.356Z,22.60
2024-03-23T00:43:00.787Z,22.50
2024-03-23T00:45:28.160Z,24.10
2024-03-23T00:47:55.553Z,22.40
2024-03-23T00:50:22.942Z,21.30
2024-03-23T00:52:50.311Z,23.60
2024-03-23T00:55:17.693Z,22.00
2024-03-23T00:57:45.197Z,21.90
2024-03-23T01:00:13.353Z,22.60
2024-03-23T01:02:40.752Z,22.90
2024-03-23T01:05:08.327Z,23.70
2024-03-23T01:07:35.724Z,23.60
2024-03-23T01:10:03.229Z,23.10
2024-03-23T01:12:30.651Z,20.90
2024-03-23T01:14:58.049Z,23.80
2024-03-23T01:17:25.515Z,24.40
2024-03-23T01:19:53.626Z,22.50
2024-03-23T01:22:21.046Z,22.90
2024-03-23T01:24:48.522Z,24.00
2024-03-23T01:27:15.990Z,23.00
2024-03-23T01:29:43.379Z,22.80
2024-03-23T01:32:10.851Z,20.10
2024-03-23T01:34:38.256Z,22.90
2024-03-23T01:37:05.726Z,24.50
2024-03-23T01:39:33.105Z,24.10
2024-03-23T01:42:00.532Z,27.00
2024-03-23T01:44:27.957Z,23.30
2024-03-23T01:46:55.450Z,23.90
2024-03-23T01:49:22.843Z,24.50
2024-03-23T01:51:50.812Z,23.90
2024-03-23T01:54:18.194Z,25.20
2024-03-23T01:56:45.609Z,27.50
2024-03-23T01:59:12.983Z,27.40
2024-03-23T02:01:40.360Z,25.90
2024-03-23T02:04:07.878Z,26.30
2024-03-23T02:06:35.247Z,26.00
2024-03-23T02:09:02.669Z,25.40
2024-03-23T02:11:30.078Z,25.80
2024-03-23T02:13:57.669Z,27.20
2024-03-23T02:16:25.214Z,26.60
2024-03-23T02:18:52.606Z,25.20
2024-03-23T02:21:20.097Z,27.20
2024-03-23T02:23:47.505Z,26.40
2024-03-23T02:26:16.309Z,26.30
2024-03-23T02:28:43.697Z,27.20
2024-03-23T02:31:11.676Z,28.20
2024-03-23T02:33:39.356Z,26.60
2024-03-23T02:36:06.950Z,25.40
2024-03-23T02:38:34.331Z,24.50
2024-03-23T02:41:05.378Z,25.80
2024-03-23T02:43:32.848Z,22.60
2024-03-23T02:46:00.246Z,27.00
2024-03-23T02:48:27.705Z,29.90
2024-03-23T02:50:55.410Z,29.20
2024-03-23T02:53:22.928Z,26.90
2024-03-23T02:55:50.337Z,28.60
2024-03-23T02:58:17.711Z,26.10
2024-03-23T03:00:45.159Z,27.90
2024-03-23T03:03:12.561Z,28.60
2024-03-23T03:05:39.968Z,26.40
2024-03-23T03:08:07.677Z,26.70
2024-03-23T03:10:37.292Z,29.90
2024-03-23T03:13:04.847Z,29.10
2024-03-23T03:15:32.341Z,30.90
2024-03-23T03:17:59.742Z,30.50
2024-03-23T03:20:27.118Z,32.00
2024-03-23T03:22:54.839Z,28.90
2024-03-23T03:25:22.344Z,28.00
2024-03-23T03:27:49.885Z,28.80
2024-03-23T03:30:17.606Z,27.70
2024-03-23T03:32:45.022Z,29.70
2024-03-23T03:35:12.409Z,28.30
2024-03-23T03:37:39.830Z,27.40
2024-03-23T03:40:09.969Z,27.80
2024-03-23T03:42:37.554Z,25.40
2024-03-23T03:45:05.723Z,28.20
2024-03-23T03:47:33.135Z,27.70
2024-03-23T03:50:00.593Z,28.40
2024-03-23T03:52:28.000Z,25.60
2024-03-23T03:55:03.401Z,26.20
2024-03-23T03:57:30.823Z,25.30
2024-03-23T03:59:58.204Z,24.50
2024-03-23T04:02:25.616Z,25.50
2024-03-23T04:04:53.062Z,23.80
2024-03-23T04:07:21.539Z,25.00
2024-03-23T04:09:48.938Z,24.40
2024-03-23T04:12:16.590Z,26.00
2024-03-23T04:14:43.951Z,25.90
2024-03-23T04:17:11.370Z,27.20
2024-03-23T04:19:38.753Z,25.90
2024-03-23T04:22:06.205Z,26.80
2024-03-23T04:24:33.653Z,26.50
2024-03-23T04:27:01.060Z,26.10
2024-03-23T04:29:28.593Z,26.50
2024-03-23T04:31:56.455Z,25.70
2024-03-23T04:34:24.397Z,26.30
2024-03-23T04:36:51.814Z,26.40
2024-03-23T04:39:20.691Z,26.20
2024-03-23T04:41:48.075Z,24.60
2024-03-23T04:44:15.495Z,23.60
2024-03-23T04:46:42.917Z,21.70
2024-03-23T04:49:11.091Z,23.20
2024-03-23T04:51:38.846Z,24.30
2024-03-23T04:54:06.910Z,22.60
2024-03-23T04:56:34.381Z,23.90
2024-03-23T04:59:02.831Z,22.60
2024-03-23T05:01:30.328Z,23.00
2024-03-23T05:03:58.383Z,23.60
2024-03-23T05:06:26.256Z,23.50
2024-03-23T05:08:53.873Z,22.10
2024-03-23T05:11:21.895Z,22.80
2024-03-23T05:13:49.261Z,21.70
2024-03-23T05:16:16.732Z,21.40
2024-03-23T05:18:44.348Z,21.40
2024-03-23T05:21:11.726Z,20.00
2024-03-23T05:23:39.309Z,21.40
2024-03-23T05:26:06.739Z,19.90
2024-03-23T05:28:34.100Z,21.90
2024-03-23T05:31:01.526Z,18.40
2024-03-23T05:33:29.198Z,21.00
2024-03-23T05:36:01.590Z,19.40
2024-03-23T05:38:29.264Z,19.40
2024-03-23T05:40:56.904Z,18.10
2024-03-23T05:43:24.392Z,20.20
2024-03-23T05:45:58.371Z,19.60
2024-03-23T05:48:27.576Z,20.10
2024-03-23T05:50:55.069Z,17.00
2024-03-23T05:53:22.566Z,18.40
2024-03-23T05:55:50.316Z,18.30
2024-03-23T05:58:18.183Z,17.10
2024-03-23T06:00:45.796Z,19.00
2024-03-23T06:03:13.322Z,18.90
2024-03-23T06:05:40.933Z,19.10
2024-03-23T06:08:10.716Z,18.30
2024-03-23T06:10:38.120Z,19.50
2024-03-23T06:13:05.538Z,19.70
2024-03-23T06:15:32.982Z,19.50
2024-03-23T06:18:00.484Z,18.70
2024-03-23T06:20:27.908Z,19.30
2024-03-23T06:22:55.271Z,20.10
2024-03-23T06:25:22.663Z,20.80
2024-03-23T06:27:50.038Z,20.50
2024-03-23T06:30:17.551Z,19.10
2024-03-23T06:32:44.932Z,19.60
2024-03-23T06:35:12.342Z,19.50
2024-03-23T06:37:41.961Z,18.70
2024-03-23T06:40:11.119Z,18.50
2024-03-23T06:42:38.578Z,15.50
2024-03-23T06:45:07.132Z,15.80
2024-03-23T06:47:34.760Z,16.10
2024-03-23T06:50:03.362Z,18.50
2024-03-23T06:52:31.213Z,19.80
2024-03-23T06:54:58.745Z,18.90
2024-03-23T06:57:26.180Z,19.10
2024-03-23T06:59:53.619Z,18.70
2024-03-23T07:02:21.076Z,18.40
2024-03-23T07:04:48.556Z,17.30
2024-03-23T07:07:15.929Z,17.20
2024-03-23T07:09:43.560Z,18.20
2024-03-23T07:12:11.162Z,19.60
2024-03-23T07:14:38.586Z,18.80
2024-03-23T07:17:06.052Z,18.80
2024-03-23T07:19:33.457Z,18.40
2024-03-23T07:22:00.878Z,16.60
2024-03-23T07:24:28.392Z,14.90
2024-03-23T07:26:56.310Z,16.90
2024-03-23T07:29:24.371Z,15.20
2024-03-23T07:31:51.939Z,16.60
2024-03-23T07:34:19.715Z,16.60
2024-03-23T07:36:47.146Z,16.30
2024-03-23T07:39:14.555Z,15.90
2024-03-23T07:41:41.971Z,14.80
2024-03-23T07:44:09.403Z,14.90
2024-03-23T07:46:36.826Z,15.00
2024-03-23T07:49:05.548Z,15.30
2024-03-23T07:51:33.902Z,14.80
2024-03-23T07:54:01.358Z,16.30
2024-03-23T07:56:28.846Z,15.30
2024-03-23T07:58:56.246Z,16.70
2024-03-23T08:01:24.776Z,16.60
2024-03-23T08:03:52.255Z,18.30
2024-03-23T08:06:32.379Z,18.20
2024-03-23T08:09:01.996Z,17.70
2024-03-23T08:11:30.079Z,17.60
2024-03-23T08:13:57.595Z,20.00
2024-03-23T08:16:25.287Z,19.50
2024-03-23T08:18:52.963Z,19.40
2024-03-23T08:21:20.557Z,21.70
2024-03-23T08:23:48.113Z,20.60
2024-03-23T08:26:16.984Z,20.40
2024-03-23T08:28:44.516Z,21.40
2024-03-23T08:31:12.741Z,22.00
2024-03-23T08:33:40.733Z,20.10
2024-03-23T08:36:09.107Z,20.70
2024-03-23T08:38:36.520Z,21.00
2024-03-23T08:41:10.988Z,19.70
2024-03-23T08:43:42.155Z,20.10
2024-03-23T08:46:10.925Z,20.40
2024-03-23T08:48:39.971Z,19.00
2024-03-23T08:51:08.639Z,18.40
2024-03-23T08:53:36.392Z,18.30
2024-03-23T08:56:04.380Z,16.60
2024-03-23T08:58:32.307Z,17.40
2024-03-23T09:01:16.228Z,17.10
2024-03-23T09:03:43.951Z,15.60
2024-03-23T09:06:12.670Z,16.40
2024-03-23T09:08:41.854Z,17.60
2024-03-23T09:11:10.430Z,17.40
2024-03-23T09:13:38.427Z,15.00
2024-03-23T09:16:06.814Z,15.10
2024-03-23T09:18:36.210Z,15.10
2024-03-23T09:21:05.181Z,15.60
2024-03-23T09:23:32.842Z,16.00
2024-03-23T09:26:04.474Z,15.00
2024-03-23T09:28:31.998Z,15.50
2024-03-23T09:31:06.665Z,16.60
2024-03-23T09:33:34.999Z,14.80
2024-03-23T09:36:05.986Z,16.60
2024-03-23T09:38:33.813Z,16.80
2024-03-23T09:41:01.326Z,16.10
2024-03-23T09:43:28.742Z,15.80
2024-03-23T09:45:56.352Z,16.40
2024-03-23T09:48:23.736Z,17.10
2024-03-23T09:50:51.266Z,16.50
2024-03-23T09:53:18.874Z,15.80
2024-03-23T09:55:46.567Z,16.20
2024-03-23T09:58:15.015Z,17.40
2024-03-23T10:00:42.837Z,15.80
2024-03-23T10:03:12.360Z,16.90
2024-03-23T10:05:41.823Z,19.40
2024-03-23T10:08:15.495Z,16.60
2024-03-23T10:10:43.190Z,14.80
2024-03-23T10:13:10.771Z,16.60
2024-03-23T10:15:38.407Z,17.00
2024-03-23T10:18:21.858Z,17.80
2024-03-23T10:21:08.966Z,18.40
2024-03-23T10:23:37.064Z,18.90
2024-03-23T10:26:20.169Z,16.80
2024-03-23T10:29:05.694Z,17.30
2024-03-23T10:31:33.271Z,16.50
2024-03-23T10:34:01.982Z,16.40
2024-03-23T10:36:29.544Z,18.40
2024-03-23T10:38:59.328Z,16.80
2024-03-23T10:41:32.750Z,16.70
2024-03-23T10:44:01.085Z,15.90
2024-03-23T10:46:28.696Z,15.70
2024-03-23T10:48:56.211Z,16.00
2024-03-23T10:51:23.784Z,15.60
2024-03-23T10:53:51.296Z,15.60
2024-03-23T10:56:18.894Z,18.50
2024-03-23T10:58:48.637Z,15.60
2024-03-23T11:01:16.783Z,15.40
2024-03-23T11:03:47.832Z,16.30
2024-03-23T11:06:35.335Z,15.10
2024-03-23T11:09:02.964Z,14.30
2024-03-23T11:11:32.759Z,15.60
2024-03-23T11:14:00.583Z,15.90
2024-03-23T11:16:30.970Z,15.90
2024-03-23T11:19:37.361Z,15.30
2024-03-23T11:22:06.092Z,14.30
2024-03-23T11:24:33.751Z,15.90
2024-03-23T11:27:02.989Z,15.10
2024-03-23T11:29:31.058Z,14.10
2024-03-23T11:31:59.305Z,14.60
2024-03-23T11:34:26.851Z,14.10
2024-03-23T11:37:05.001Z,13.30
2024-03-23T11:39:32.552Z,35.50
2024-03-23T11:42:00.161Z,17.20
2024-03-23T11:44:27.656Z,12.80
2024-03-23T11:46:55.425Z,12.70
2024-03-23T11:49:29.798Z,27.90
2024-03-23T11:51:57.587Z,20.30
2024-03-23T11:54:25.757Z,13.60
2024-03-23T11:57:06.071Z,14.50
2024-03-23T11:59:37.166Z,22.60
2024-03-23T12:02:12.147Z,13.70
2024-03-23T12:04:41.021Z,13.50
2024-03-23T12:07:22.382Z,21.00
2024-03-23T12:10:07.291Z,25.60
2024-03-23T12:12:34.904Z,15.90
2024-03-23T12:15:07.088Z,15.70
2024-03-23T12:17:35.845Z,12.80
2024-03-23T12:20:03.751Z,14.20
2024-03-23T12:22:31.358Z,62.40
2024-03-23T12:24:58.919Z,24.00
2024-03-23T12:27:26.570Z,15.80
2024-03-23T12:29:54.112Z,19.40
2024-03-23T12:32:21.701Z,93.10
2024-03-23T12:34:49.136Z,27.80
2024-03-23T12:37:20.780Z,17.80
2024-03-23T12:39:48.471Z,39.70
2024-03-23T12:42:16.195Z,22.20
2024-03-23T12:44:43.716Z,14.70
2024-03-23T12:47:12.237Z,12.10
2024-03-23T12:49:39.769Z,13.00
2024-03-23T12:52:09.198Z,12.30
2024-03-23T12:54:36.749Z,11.90
2024-03-23T12:57:04.393Z,11.90
2024-03-23T12:59:31.946Z,13.30
2024-03-23T13:01:59.493Z,11.90
2024-03-23T13:04:27.315Z,10.60
2024-03-23T13:06:54.822Z,10.30
2024-03-23T13:09:22.577Z,12.50
2024-03-23T13:11:50.114Z,13.10
2024-03-23T13:14:18.986Z,10.80
2024-03-23T13:16:46.682Z,11.40
2024-03-23T13:19:14.205Z,10.40
2024-03-23T13:21:41.801Z,13.80
2024-03-23T13:24:09.607Z,9.50
2024-03-23T13:26:37.866Z,10.90
2024-03-23T13:29:05.387Z,9.50
2024-03-23T13:31:33.040Z,10.80
2024-03-23T13:34:00.666Z,9.50
2024-03-23T13:36:28.172Z,9.60
2024-03-23T13:38:55.752Z,9.10
2024-03-23T13:41:23.357Z,9.70
2024-03-23T13:43:50.958Z,9.70
2024-03-23T13:46:18.516Z,11.60
2024-03-23T13:48:46.080Z,11.70
2024-03-23T13:51:14.195Z,9.90
2024-03-23T13:53:41.805Z,9.70
2024-03-23T13:56:09.376Z,10.60
2024-03-23T13:58:36.945Z,9.60
2024-03-23T14:01:04.566Z,9.20
2024-03-23T14:03:32.223Z,8.90
2024-03-23T14:05:59.975Z,8.90
2024-03-23T14:08:28.990Z,11.30
2024-03-23T14:10:58.627Z,10.00
2024-03-23T14:13:26.350Z,9.70
2024-03-23T14:15:54.907Z,9.60
2024-03-23T14:18:25.339Z,8.60
2024-03-23T14:20:53.121Z,9.10
2024-03-23T14:23:20.735Z,9.00
2024-03-23T14:25:48.333Z,9.80
2024-03-23T14:28:16.034Z,10.40
2024-03-23T14:30:43.809Z,9.20
2024-03-23T14:33:11.348Z,9.50
2024-03-23T14:35:39.326Z,9.90
2024-03-23T14:38:07.017Z,16.40
2024-03-23T14:40:35.007Z,18.80
2024-03-23T14:43:03.649Z,15.50
2024-03-23T14:45:32.073Z,16.60
2024-03-23T14:48:00.033Z,15.90
2024-03-23T14:50:27.585Z,15.10
2024-03-23T14:52:55.190Z,15.20
2024-03-23T14:55:22.758Z,17.30
2024-03-23T14:57:51.918Z,15.30
2024-03-23T15:00:19.792Z,15.20
2024-03-23T15:02:47.359Z,15.60
2024-03-23T15:05:15.118Z,14.70
2024-03-23T15:07:42.696Z,13.80
2024-03-23T15:10:11.360Z,15.40
2024-03-23T15:12:38.949Z,18.10
2024-03-23T15:15:06.953Z,19.90
2024-03-23T15:17:37.938Z,15.70
2024-03-23T15:20:07.336Z,13.10
2024-03-23T15:22:34.927Z,14.60
2024-03-23T15:25:02.514Z,14.70
2024-03-23T15:27:30.083Z,14.90
2024-03-23T15:29:58.747Z,15.90
2024-03-23T15:32:26.279Z,17.10
2024-03-23T15:34:53.839Z,22.90
2024-03-23T15:37:21.402Z,20.90
2024-03-23T15:39:49.027Z,21.60
2024-03-23T15:42:16.581Z,21.60
2024-03-23T15:44:44.614Z,22.00
2024-03-23T15:47:12.283Z,26.10
2024-03-23T15:49:41.523Z,28.50
2024-03-23T15:52:10.198Z,26.50
2024-03-23T15:54:37.920Z,28.90
2024-03-23T15:57:05.675Z,28.50
2024-03-23T15:59:33.221Z,27.10
2024-03-23T16:02:00.848Z,25.10
2024-03-23T16:04:28.648Z,23.90
2024-03-23T16:06:56.169Z,24.30
2024-03-23T16:09:24.289Z,22.00
2024-03-23T16:11:51.857Z,20.20
2024-03-23T16:14:19.410Z,20.60
2024-03-23T16:16:46.995Z,22.00
2024-03-23T16:19:15.301Z,26.70
2024-03-23T16:21:42.885Z,28.30
2024-03-23T16:24:10.421Z,32.80
2024-03-23T16:26:38.129Z,38.90
2024-03-23T16:29:05.741Z,41.90
2024-03-23T16:31:33.510Z,37.60
2024-03-23T16:34:01.095Z,36.40
2024-03-23T16:36:28.763Z,36.00
2024-03-23T16:38:56.319Z,40.40
2024-03-23T16:41:23.918Z,53.40
2024-03-23T16:43:51.449Z,53.90
2024-03-23T16:46:19.059Z,45.40
2024-03-23T16:48:46.950Z,44.30
2024-03-23T16:51:14.668Z,34.50
2024-03-23T16:53:42.462Z,30.60
2024-03-23T16:56:10.307Z,27.40
2024-03-23T16:58:42.160Z,28.40
2024-03-23T17:01:24.346Z,27.30
2024-03-23T17:03:52.707Z,31.40
2024-03-23T17:06:21.005Z,33.70
2024-03-23T17:08:49.648Z,32.80
2024-03-23T17:11:19.333Z,35.60
2024-03-23T17:13:48.848Z,33.40
2024-03-23T17:16:17.456Z,32.00
2024-03-23T17:18:45.056Z,28.90
2024-03-23T17:21:12.587Z,26.50
2024-03-23T17:23:40.131Z,25.60
2024-03-23T17:26:07.788Z,23.90
2024-03-23T17:28:35.446Z,25.10
2024-03-23T17:31:03.099Z,23.40
2024-03-23T17:33:30.649Z,23.10
2024-03-23T17:35:58.186Z,32.10
2024-03-23T17:38:25.808Z,30.70
2024-03-23T17:40:57.480Z,28.40
2024-03-23T17:43:25.429Z,31.20
2024-03-23T17:45:53.040Z,28.10
2024-03-23T17:48:20.856Z,25.70
2024-03-23T17:50:48.442Z,23.30
2024-03-23T17:53:16.066Z,23.10
2024-03-23T17:55:43.802Z,22.60
2024-03-23T17:58:11.523Z,21.90
2024-03-23T18:00:39.079Z,34.80
2024-03-23T18:03:07.130Z,51.60
2024-03-23T18:05:35.090Z,28.50
2024-03-23T18:08:02.805Z,27.40
2024-03-23T18:10:31.125Z,23.70
2024-03-23T18:12:58.729Z,19.40
2024-03-23T18:15:27.381Z,16.70
2024-03-23T18:17:55.078Z,15.40
2024-03-23T18:20:22.714Z,17.10
2024-03-23T18:22:50.263Z,21.60
2024-03-23T18:25:17.858Z,19.10
2024-03-23T18:27:45.459Z,16.10
2024-03-23T18:30:13.613Z,14.60
2024-03-23T18:32:41.218Z,15.90
2024-03-23T18:35:09.108Z,13.80
2024-03-23T18:37:36.616Z,14.20
2024-03-23T18:40:04.990Z,15.50
2024-03-23T18:42:35.698Z,16.20
2024-03-23T18:45:03.304Z,17.10
2024-03-23T18:47:30.880Z,15.70
2024-03-23T18:49:59.748Z,16.50
2024-03-23T18:52:27.378Z,16.30
2024-03-23T18:54:55.431Z,16.00
2024-03-23T18:57:23.117Z,16.30
2024-03-23T18:59:52.229Z,16.20
2024-03-23T19:02:19.868Z,17.40
2024-03-23T19:04:47.600Z,17.30
2024-03-23T19:07:15.463Z,17.80
2024-03-23T19:09:43.082Z,17.90
2024-03-23T19:12:10.824Z,19.10
2024-03-23T19:14:41.065Z,17.70
2024-03-23T19:17:08.646Z,17.90
2024-03-23T19:19:36.281Z,16.90
2024-03-23T19:22:04.132Z,17.70
2024-03-23T19:24:31.703Z,16.60
2024-03-23T19:26:59.363Z,16.70
2024-03-23T19:29:27.261Z,16.50
2024-03-23T19:31:54.828Z,17.00
2024-03-23T19:34:22.523Z,17.40
2024-03-23T19:36:50.232Z,17.80
2024-03-23T19:39:19.016Z,17.30
2024-03-23T19:41:46.631Z,18.60
2024-03-23T19:44:14.255Z,17.90
2024-03-23T19:46:41.851Z,19.20
2024-03-23T19:49:09.630Z,20.00
2024-03-23T19:51:37.315Z,19.80
2024-03-23T19:54:08.355Z,18.80
2024-03-23T19:56:41.398Z,18.20
2024-03-23T19:59:10.140Z,18.60
2024-03-23T20:01:38.483Z,19.10
2024-03-23T20:04:06.071Z,19.50
2024-03-23T20:06:33.761Z,19.80
2024-03-23T20:09:01.283Z,19.30
2024-03-23T20:11:28.902Z,19.90
2024-03-23T20:13:56.424Z,19.20
2024-03-23T20:16:23.952Z,18.20
2024-03-23T20:18:55.867Z,18.90
2024-03-23T20:21:23.685Z,17.80
2024-03-23T20:23:51.506Z,17.10
2024-03-23T20:26:19.239Z,18.20
2024-03-23T20:28:46.869Z,18.20
2024-03-23T20:31:14.478Z,18.70
2024-03-23T20:33:42.071Z,19.20
2024-03-23T20:36:09.709Z,17.80
2024-03-23T20:38:37.369Z,18.80
2024-03-23T20:41:04.939Z,18.70
2024-03-23T20:43:32.804Z,17.70
2024-03-23T20:46:01.793Z,17.90
2024-03-23T20:48:30.101Z,18.80
2024-03-23T20:51:01.221Z,18.30
2024-03-23T20:53:28.936Z,18.50
2024-03-23T20:55:57.599Z,17.60
2024-03-23T20:58:25.935Z,18.10
2024-03-23T21:00:53.571Z,17.60
2024-03-23T21:03:21.195Z,18.40
2024-03-23T21:05:53.275Z,16.60
2024-03-23T21:08:21.009Z,16.60
2024-03-23T21:10:52.235Z,16.70
2024-03-23T21:13:20.288Z,17.90
2024-03-23T21:15:49.194Z,16.80
2024-03-23T21:18:16.796Z,18.10
2024-03-23T21:20:44.322Z,17.80
2024-03-23T21:23:12.617Z,16.10
2024-03-23T21:25:41.506Z,15.40
2024-03-23T21:28:09.073Z,13.70
2024-03-23T21:30:37.073Z,14.60
2024-03-23T21:33:05.716Z,16.00
2024-03-23T21:35:34.592Z,16.30
2024-03-23T21:38:02.198Z,16.50
2024-03-23T21:40:30.084Z,15.90
2024-03-23T21:42:57.673Z,16.90
2024-03-23T21:45:25.139Z,16.40
2024-03-23T21:47:52.798Z,16.00
2024-03-23T21:50:20.354Z,15.10
2024-03-23T21:52:47.734Z,15.30
2024-03-23T21:55:15.486Z,15.50
2024-03-23T21:57:42.903Z,15.80
2024-03-23T22:00:11.600Z,16.10
2024-03-23T22:02:42.785Z,16.20
2024-03-23T22:05:11.414Z,16.80
2024-03-23T22:07:38.824Z,16.30
2024-03-23T22:10:07.950Z,19.20
2024-03-23T22:12:35.436Z,17.80
2024-03-23T22:15:02.871Z,18.10
2024-03-23T22:17:31.648Z,17.10
2024-03-23T22:19:59.213Z,18.40
2024-03-23T22:22:26.602Z,18.40
2024-03-23T22:24:54.200Z,16.80
2024-03-23T22:27:21.616Z,16.60
2024-03-23T22:29:49.281Z,16.40
2024-03-23T22:32:16.740Z,15.80
2024-03-23T22:34:45.227Z,14.50
2024-03-23T22:37:12.657Z,15.30
2024-03-23T22:39:40.161Z,15.10
2024-03-23T22:42:07.576Z,15.60
2024-03-23T22:44:36.142Z,17.20
2024-03-23T22:47:03.718Z,16.30
2024-03-23T22:49:31.272Z,16.50
2024-03-23T22:51:58.694Z,16.30
2024-03-23T22:54:26.203Z,17.40
2024-03-23T22:56:53.695Z,16.70
2024-03-23T22:59:22.175Z,17.70
2024-03-23T23:01:49.613Z,17.10
2024-03-23T23:04:17.930Z,15.60
2024-03-23T23:06:45.324Z,14.90
2024-03-23T23:09:12.846Z,16.20
2024-03-23T23:11:40.274Z,17.20
2024-03-23T23:14:07.934Z,16.80
2024-03-23T23:16:35.507Z,16.60
2024-03-23T23:19:03.569Z,16.60
2024-03-23T23:21:30.993Z,17.70
2024-03-23T23:24:00.351Z,17.90
2024-03-23T23:26:28.255Z,17.80
2024-03-23T23:28:55.724Z,17.10
2024-03-23T23:31:23.375Z,17.20
2024-03-23T23:33:50.897Z,18.10
2024-03-23T23:36:18.422Z,18.90
2024-03-23T23:38:50.734Z,19.80
2024-03-23T23:41:18.482Z,17.80
2024-03-23T23:43:54.861Z,19.20
2024-03-23T23:46:23.228Z,17.50
2024-03-23T23:48:50.608Z,19.60
2024-03-23T23:51:19.181Z,18.20
2024-03-23T23:53:47.286Z,19.70
2024-03-23T23:56:14.691Z,19.90
2024-03-23T23:58:42.094Z,19.30
